createdAt,value
2018-05-03T00:00:23.100Z,0.00
2018-05-03T00:01:23.127Z,0.00
2018-05-03T00:02:23.155Z,0.00
2018-05-03T00:03:23.181Z,0.00
2018-05-03T00:04:23.218Z,0.00
2018-05-03T00:05:23.269Z,0.00
2018-05-03T00:06:23.265Z,0.00
2018-05-03T00:07:23.291Z,0.00
2018-05-03T00:08:23.318Z,0.00
2018-05-03T00:09:23.350Z,0.00
2018-05-03T00:10:23.373Z,0.00
2018-05-03T00:11:23.400Z,0.00
2018-05-03T00:12:23.428Z,0.00
2018-05-03T00:13:23.455Z,0.00
2018-05-03T00:14:23.486Z,0.00
2018-05-03T00:15:23.509Z,0.00
2018-05-03T00:16:23.536Z,0.00
2018-05-03T00:17:23.581Z,0.00
2018-05-03T00:18:23.594Z,0.00
2018-05-03T00:19:23.627Z,0.00
2018-05-03T00:20:23.676Z,0.00
2018-05-03T00:21:23.674Z,0.00
2018-05-03T00:22:23.701Z,0.00
2018-05-03T00:23:23.729Z,0.00
2018-05-03T00:24:23.758Z,0.00
2018-05-03T00:25:23.783Z,0.00
2018-05-03T00:26:23.810Z,0.00
2018-05-03T00:27:23.837Z,0.00
2018-05-03T00:28:23.865Z,0.00
2018-05-03T00:29:23.893Z,0.00
2018-05-03T00:30:23.919Z,0.00
2018-05-03T00:31:23.946Z,0.00
2018-05-03T00:32:23.974Z,0.00
2018-05-03T00:33:24.024Z,0.00
2018-05-03T00:34:24.059Z,0.00
2018-05-03T00:35:24.054Z,0.00
2018-05-03T00:36:24.083Z,0.00
2018-05-03T00:37:24.110Z,0.00
2018-05-03T00:38:24.159Z,0.00
2018-05-03T00:39:24.165Z,0.00
2018-05-03T00:40:24.192Z,0.00
2018-05-03T00:41:24.219Z,0.00
2018-05-03T00:42:24.250Z,0.00
2018-05-03T00:43:24.274Z,0.00
2018-05-03T00:44:24.301Z,0.00
2018-05-03T00:45:24.329Z,0.00
2018-05-03T00:46:24.356Z,0.00
2018-05-03T00:47:24.382Z,0.00
2018-05-03T00:48:24.454Z,0.00
2018-05-03T00:49:24.439Z,0.00
2018-05-03T00:50:24.465Z,0.00
2018-05-03T00:51:24.493Z,0.00
2018-05-03T00:52:24.523Z,0.00
2018-05-03T00:53:24.547Z,0.00
2018-05-03T00:54:24.577Z,0.00
2018-05-03T00:55:24.601Z,0.00
2018-05-03T00:56:24.628Z,0.00
2018-05-03T00:57:24.656Z,0.00
2018-05-03T00:58:24.683Z,0.00
2018-05-03T00:59:24.749Z,0.00
2018-05-03T01:00:24.738Z,0.00
2018-05-03T01:01:24.764Z,0.00
2018-05-03T01:02:24.793Z,0.00
2018-05-03T01:03:24.819Z,0.00
2018-05-03T01:04:24.869Z,0.00
2018-05-03T01:05:24.874Z,0.00
2018-05-03T01:06:24.901Z,0.00
2018-05-03T01:07:24.927Z,0.00
2018-05-03T01:08:24.955Z,0.00
2018-05-03T01:09:25.014Z,0.00
2018-05-03T01:10:25.011Z,0.00
2018-05-03T01:11:25.037Z,0.00
2018-05-03T01:12:25.065Z,0.00
2018-05-03T01:13:25.092Z,0.00
2018-05-03T01:14:25.119Z,0.00
2018-05-03T01:15:25.145Z,0.00
2018-05-03T01:16:25.172Z,0.00
2018-05-03T01:17:25.201Z,0.00
2018-05-03T01:18:25.228Z,0.00
2018-05-03T01:19:25.262Z,0.00
2018-05-03T01:20:25.282Z,0.00
2018-05-03T01:21:25.309Z,0.00
2018-05-03T01:22:25.337Z,0.00
2018-05-03T01:23:25.363Z,0.00
2018-05-03T01:24:25.390Z,0.00
2018-05-03T01:25:25.418Z,0.00
2018-05-03T01:26:25.446Z,0.00
2018-05-03T01:27:25.472Z,0.00
2018-05-03T01:28:25.503Z,0.00
2018-05-03T01:29:25.530Z,0.00
2018-05-03T01:30:25.592Z,0.00
2018-05-03T01:31:25.611Z,0.00
2018-05-03T01:32:25.608Z,0.00
2018-05-03T01:33:25.637Z,0.00
2018-05-03T01:34:25.677Z,0.00
2018-05-03T01:35:25.713Z,0.00
2018-05-03T01:36:25.717Z,0.00
2018-05-03T01:37:25.746Z,0.00
2018-05-03T01:38:25.775Z,4.00
2018-05-03T01:39:25.799Z,4.00
2018-05-03T01:40:25.826Z,4.00
2018-05-03T01:41:25.855Z,4.00
2018-05-03T01:42:25.881Z,4.00
2018-05-03T01:43:25.907Z,4.00
2018-05-03T01:44:25.937Z,4.00
2018-05-03T01:45:26.002Z,4.00
2018-05-03T01:46:25.991Z,4.00
2018-05-03T01:47:26.017Z,4.00
2018-05-03T01:48:26.044Z,4.00
2018-05-03T01:49:26.075Z,4.00
2018-05-03T01:50:26.099Z,4.00
2018-05-03T01:51:26.128Z,4.00
2018-05-03T01:52:26.153Z,4.00
2018-05-03T01:53:26.180Z,4.00
2018-05-03T01:54:26.207Z,4.00
2018-05-03T01:55:26.234Z,4.00
2018-05-03T01:56:26.315Z,4.00
2018-05-03T01:57:26.289Z,4.00
2018-05-03T01:58:26.317Z,4.00
2018-05-03T01:59:26.344Z,8.00
2018-05-03T02:00:26.405Z,8.00
2018-05-03T02:01:26.438Z,8.00
2018-05-03T02:02:26.426Z,8.00
2018-05-03T02:03:26.452Z,8.00
2018-05-03T02:04:26.480Z,8.00
2018-05-03T02:05:26.507Z,8.00
2018-05-03T02:06:26.570Z,12.00
2018-05-03T02:07:26.602Z,12.00
2018-05-03T02:08:26.589Z,8.00
2018-05-03T02:09:26.616Z,8.00
2018-05-03T02:10:26.643Z,12.00
2018-05-03T02:11:26.669Z,8.00
2018-05-03T02:12:26.697Z,8.00
2018-05-03T02:13:26.724Z,12.00
2018-05-03T02:14:26.751Z,12.00
2018-05-03T02:15:26.780Z,12.00
2018-05-03T02:16:26.805Z,16.00
2018-05-03T02:17:26.833Z,16.00
2018-05-03T02:18:26.860Z,16.00
2018-05-03T02:19:26.910Z,20.00
2018-05-03T02:20:26.914Z,20.00
2018-05-03T02:21:26.942Z,20.00
2018-05-03T02:22:26.969Z,16.00
2018-05-03T02:23:26.996Z,20.00
2018-05-03T02:24:27.023Z,24.00
2018-05-03T02:25:27.051Z,24.00
2018-05-03T02:26:27.078Z,24.00
2018-05-03T02:27:27.104Z,20.00
2018-05-03T02:28:27.132Z,24.00
2018-05-03T02:29:27.160Z,28.00
2018-05-03T02:30:27.187Z,24.00
2018-05-03T02:31:27.244Z,24.00
2018-05-03T02:32:27.241Z,32.00
2018-05-03T02:33:27.316Z,36.00
2018-05-03T02:34:27.296Z,32.00
2018-05-03T02:35:27.322Z,28.00
2018-05-03T02:36:27.354Z,32.00
2018-05-03T02:37:27.377Z,36.00
2018-05-03T02:38:27.405Z,36.00
2018-05-03T02:39:27.432Z,40.00
2018-05-03T02:40:27.458Z,40.00
2018-05-03T02:41:27.487Z,44.00
2018-05-03T02:42:27.514Z,32.00
2018-05-03T02:43:27.541Z,32.00
2018-05-03T02:44:27.568Z,44.00
2018-05-03T02:45:27.595Z,40.00
2018-05-03T02:46:27.623Z,44.00
2018-05-03T02:47:27.650Z,48.00
2018-05-03T02:48:27.710Z,52.00
2018-05-03T02:49:27.704Z,56.00
2018-05-03T02:50:27.771Z,60.00
2018-05-03T02:51:27.760Z,52.00
2018-05-03T02:52:27.790Z,60.00
2018-05-03T02:53:27.816Z,56.00
2018-05-03T02:54:27.840Z,56.00
2018-05-03T02:55:27.870Z,56.00
2018-05-03T02:56:27.903Z,60.00
2018-05-03T02:57:27.921Z,64.00
2018-05-03T02:58:27.949Z,56.00
2018-05-03T02:59:27.975Z,64.00
2018-05-03T03:00:28.003Z,60.00
2018-05-03T03:01:28.031Z,64.00
2018-05-03T03:02:28.132Z,72.00
2018-05-03T03:03:28.085Z,72.00
2018-05-03T03:04:28.112Z,72.00
2018-05-03T03:05:28.140Z,68.00
2018-05-03T03:06:28.168Z,68.00
2018-05-03T03:07:28.197Z,64.00
2018-05-03T03:08:28.240Z,68.00
2018-05-03T03:09:28.248Z,68.00
2018-05-03T03:10:28.276Z,76.00
2018-05-03T03:11:28.302Z,84.00
2018-05-03T03:12:28.329Z,92.00
2018-05-03T03:13:28.389Z,84.00
2018-05-03T03:14:28.386Z,88.00
2018-05-03T03:15:28.413Z,92.00
2018-05-03T03:16:28.438Z,108.00
2018-05-03T03:17:28.465Z,88.00
2018-05-03T03:18:28.493Z,88.00
2018-05-03T03:19:28.520Z,96.00
2018-05-03T03:20:28.547Z,88.00
2018-05-03T03:21:28.574Z,100.00
2018-05-03T03:22:28.602Z,120.00
2018-05-03T03:23:28.628Z,116.00
2018-05-03T03:24:28.656Z,100.00
2018-05-03T03:25:28.683Z,100.00
2018-05-03T03:26:28.745Z,100.00
2018-05-03T03:27:28.738Z,104.00
2018-05-03T03:28:28.765Z,100.00
2018-05-03T03:29:28.792Z,104.00
2018-05-03T03:30:28.836Z,96.00
2018-05-03T03:31:28.847Z,112.00
2018-05-03T03:32:28.874Z,108.00
2018-05-03T03:33:28.902Z,100.00
2018-05-03T03:34:28.969Z,108.00
2018-05-03T03:35:28.955Z,112.00
2018-05-03T03:36:28.982Z,112.00
2018-05-03T03:37:29.010Z,124.00
2018-05-03T03:38:29.037Z,128.00
2018-05-03T03:39:29.064Z,132.00
2018-05-03T03:40:29.124Z,128.00
2018-05-03T03:41:29.121Z,124.00
2018-05-03T03:42:29.146Z,136.00
2018-05-03T03:43:29.174Z,140.00
2018-05-03T03:44:29.201Z,136.00
2018-05-03T03:45:29.227Z,136.00
2018-05-03T03:46:29.260Z,132.00
2018-05-03T03:47:29.281Z,132.00
2018-05-03T03:48:29.312Z,112.00
2018-05-03T03:49:29.337Z,108.00
2018-05-03T03:50:29.364Z,112.00
2018-05-03T03:51:29.390Z,116.00
2018-05-03T03:52:29.418Z,112.00
2018-05-03T03:53:29.472Z,116.00
2018-05-03T03:54:29.473Z,108.00
2018-05-03T03:55:29.499Z,120.00
2018-05-03T03:56:29.527Z,120.00
2018-05-03T03:57:29.556Z,132.00
2018-05-03T03:58:29.615Z,136.00
2018-05-03T03:59:29.608Z,136.00
2018-05-03T04:00:29.635Z,144.00
2018-05-03T04:01:29.663Z,148.00
2018-05-03T04:02:29.691Z,152.00
2018-05-03T04:03:29.717Z,160.00
2018-05-03T04:04:29.744Z,152.00
2018-05-03T04:05:29.813Z,168.00
2018-05-03T04:06:29.804Z,164.00
2018-05-03T04:07:29.839Z,168.00
2018-05-03T04:08:29.854Z,180.00
2018-05-03T04:09:29.881Z,188.00
2018-05-03T04:10:29.908Z,196.00
2018-05-03T04:11:29.935Z,188.00
2018-05-03T04:12:29.963Z,180.00
2018-05-03T04:13:29.991Z,176.00
2018-05-03T04:14:30.018Z,172.00
2018-05-03T04:15:30.044Z,180.00
2018-05-03T04:16:30.076Z,204.00
2018-05-03T04:17:30.099Z,216.00
2018-05-03T04:18:30.127Z,208.00
2018-05-03T04:19:30.153Z,200.00
2018-05-03T04:20:30.191Z,200.00
2018-05-03T04:21:30.209Z,200.00
2018-05-03T04:22:30.288Z,212.00
2018-05-03T04:23:30.264Z,248.00
2018-05-03T04:24:30.290Z,276.00
2018-05-03T04:25:30.317Z,304.00
2018-05-03T04:26:30.348Z,276.00
2018-05-03T04:27:30.371Z,248.00
2018-05-03T04:28:30.400Z,220.00
2018-05-03T04:29:30.427Z,212.00
2018-05-03T04:30:30.454Z,220.00
2018-05-03T04:31:30.481Z,232.00
2018-05-03T04:32:30.509Z,236.00
2018-05-03T04:33:30.536Z,216.00
2018-05-03T04:34:30.645Z,208.00
2018-05-03T04:35:30.589Z,228.00
2018-05-03T04:36:30.619Z,220.00
2018-05-03T04:37:30.648Z,216.00
2018-05-03T04:38:30.673Z,216.00
2018-05-03T04:39:30.700Z,208.00
2018-05-03T04:40:30.726Z,200.00
2018-05-03T04:41:30.762Z,200.00
2018-05-03T04:42:30.785Z,192.00
2018-05-03T04:43:30.818Z,188.00
2018-05-03T04:44:30.880Z,184.00
2018-05-03T04:45:30.864Z,184.00
2018-05-03T04:46:30.890Z,188.00
2018-05-03T04:47:30.917Z,196.00
2018-05-03T04:48:30.944Z,200.00
2018-05-03T04:49:30.971Z,196.00
2018-05-03T04:50:31.002Z,216.00
2018-05-03T04:51:31.026Z,236.00
2018-05-03T04:52:31.054Z,236.00
2018-05-03T04:53:31.086Z,236.00
2018-05-03T04:54:31.108Z,256.00
2018-05-03T04:55:31.136Z,240.00
2018-05-03T04:56:31.162Z,232.00
2018-05-03T04:57:31.191Z,224.00
2018-05-03T04:58:31.222Z,236.00
2018-05-03T04:59:31.245Z,244.00
2018-05-03T05:00:31.303Z,724.00
2018-05-03T05:01:31.299Z,716.00
2018-05-03T05:02:31.327Z,764.00
2018-05-03T05:03:31.353Z,824.00
2018-05-03T05:04:31.380Z,868.00
2018-05-03T05:05:31.408Z,860.00
2018-05-03T05:06:31.441Z,832.00
2018-05-03T05:07:31.462Z,828.00
2018-05-03T05:08:31.489Z,820.00
2018-05-03T05:09:31.519Z,812.00
2018-05-03T05:10:31.557Z,804.00
2018-05-03T05:11:31.571Z,812.00
2018-05-03T05:12:31.598Z,828.00
2018-05-03T05:13:31.626Z,852.00
2018-05-03T05:14:31.658Z,848.00
2018-05-03T05:15:31.679Z,844.00
2018-05-03T05:16:31.708Z,888.00
2018-05-03T05:17:31.737Z,904.00
2018-05-03T05:18:31.763Z,860.00
2018-05-03T05:19:31.830Z,840.00
2018-05-03T05:20:31.817Z,900.00
2018-05-03T05:21:31.845Z,960.00
2018-05-03T05:22:31.910Z,972.00
2018-05-03T05:23:31.899Z,960.00
2018-05-03T05:24:31.926Z,952.00
2018-05-03T05:25:31.957Z,968.00
2018-05-03T05:26:31.981Z,1048.00
2018-05-03T05:27:32.014Z,1156.00
2018-05-03T05:28:32.079Z,1120.00
2018-05-03T05:29:32.063Z,1040.00
2018-05-03T05:30:32.091Z,992.00
2018-05-03T05:31:32.128Z,964.00
2018-05-03T05:32:32.145Z,952.00
2018-05-03T05:33:32.195Z,948.00
2018-05-03T05:34:32.201Z,940.00
2018-05-03T05:35:32.228Z,940.00
2018-05-03T05:36:32.255Z,920.00
2018-05-03T05:37:32.282Z,904.00
2018-05-03T05:38:32.320Z,896.00
2018-05-03T05:39:32.338Z,872.00
2018-05-03T05:40:32.365Z,844.00
2018-05-03T05:41:32.392Z,824.00
2018-05-03T05:42:32.420Z,816.00
2018-05-03T05:43:32.447Z,812.00
2018-05-03T05:44:32.474Z,832.00
2018-05-03T05:45:32.504Z,868.00
2018-05-03T05:46:32.529Z,904.00
2018-05-03T05:47:32.564Z,472.00
2018-05-03T05:48:32.583Z,496.00
2018-05-03T05:49:32.611Z,640.00
2018-05-03T05:50:32.639Z,868.00
2018-05-03T05:51:32.666Z,992.00
2018-05-03T05:52:32.716Z,944.00
2018-05-03T05:53:32.723Z,828.00
2018-05-03T05:54:32.749Z,724.00
2018-05-03T05:55:32.774Z,752.00
2018-05-03T05:56:32.807Z,884.00
2018-05-03T05:57:32.842Z,904.00
2018-05-03T05:58:32.859Z,832.00
2018-05-03T05:59:32.885Z,708.00
2018-05-03T06:00:32.913Z,720.00
2018-05-03T06:01:32.941Z,748.00
2018-05-03T06:02:32.967Z,716.00
2018-05-03T06:03:32.995Z,656.00
2018-05-03T06:04:33.034Z,564.00
2018-05-03T06:05:33.070Z,508.00
2018-05-03T06:06:33.101Z,472.00
2018-05-03T06:07:33.122Z,456.00
2018-05-03T06:08:33.136Z,452.00
2018-05-03T06:09:33.160Z,468.00
2018-05-03T06:10:33.190Z,492.00
2018-05-03T06:11:33.213Z,580.00
2018-05-03T06:12:33.265Z,672.00
2018-05-03T06:13:33.283Z,720.00
2018-05-03T06:14:33.298Z,648.00
2018-05-03T06:15:33.323Z,648.00
2018-05-03T06:16:33.354Z,648.00
2018-05-03T06:17:33.384Z,604.00
2018-05-03T06:18:33.477Z,572.00
2018-05-03T06:19:33.435Z,560.00
2018-05-03T06:20:33.473Z,552.00
2018-05-03T06:21:33.497Z,528.00
2018-05-03T06:22:33.520Z,504.00
2018-05-03T06:23:33.569Z,504.00
2018-05-03T06:24:33.594Z,512.00
2018-05-03T06:25:33.602Z,484.00
2018-05-03T06:26:33.626Z,456.00
2018-05-03T06:27:33.653Z,436.00
2018-05-03T06:28:33.682Z,412.00
2018-05-03T06:29:33.719Z,396.00
2018-05-03T06:30:33.739Z,400.00
2018-05-03T06:31:33.822Z,404.00
2018-05-03T06:32:33.792Z,404.00
2018-05-03T06:33:33.824Z,388.00
2018-05-03T06:34:33.846Z,376.00
2018-05-03T06:35:33.874Z,416.00
2018-05-03T06:36:33.932Z,568.00
2018-05-03T06:37:33.940Z,612.00
2018-05-03T06:38:33.957Z,612.00
2018-05-03T06:39:33.994Z,628.00
2018-05-03T06:40:34.013Z,728.00
2018-05-03T06:41:34.042Z,900.00
2018-05-03T06:42:34.068Z,992.00
2018-05-03T06:43:34.112Z,944.00
2018-05-03T06:44:34.133Z,896.00
2018-05-03T06:45:34.168Z,960.00
2018-05-03T06:46:34.227Z,972.00
2018-05-03T06:47:34.210Z,824.00
2018-05-03T06:48:34.242Z,760.00
2018-05-03T06:49:34.261Z,712.00
2018-05-03T06:50:34.290Z,848.00
2018-05-03T06:51:34.345Z,924.00
2018-05-03T06:52:34.348Z,864.00
2018-05-03T06:53:34.378Z,916.00
2018-05-03T06:54:34.402Z,1004.00
2018-05-03T06:55:34.425Z,1072.00
2018-05-03T06:56:34.452Z,1200.00
2018-05-03T06:57:34.481Z,1220.00
2018-05-03T06:58:34.620Z,1240.00
2018-05-03T06:59:34.582Z,1284.00
2018-05-03T07:00:34.563Z,1264.00
2018-05-03T07:01:34.591Z,1172.00
2018-05-03T07:02:34.619Z,1072.00
2018-05-03T07:03:34.668Z,1060.00
2018-05-03T07:04:34.673Z,1072.00
2018-05-03T07:05:34.710Z,1008.00
2018-05-03T07:06:34.731Z,948.00
2018-05-03T07:07:34.778Z,924.00
2018-05-03T07:08:34.783Z,912.00
2018-05-03T07:09:34.811Z,952.00
2018-05-03T07:10:34.840Z,880.00
2018-05-03T07:11:34.942Z,852.00
2018-05-03T07:12:34.929Z,780.00
2018-05-03T07:13:34.922Z,916.00
2018-05-03T07:14:34.949Z,832.00
2018-05-03T07:15:34.993Z,792.00
2018-05-03T07:16:35.046Z,784.00
2018-05-03T07:17:35.032Z,904.00
2018-05-03T07:18:35.080Z,736.00
2018-05-03T07:19:35.093Z,704.00
2018-05-03T07:20:35.122Z,676.00
2018-05-03T07:21:35.145Z,676.00
2018-05-03T07:22:35.184Z,736.00
2018-05-03T07:23:35.196Z,700.00
2018-05-03T07:24:35.228Z,756.00
2018-05-03T07:25:35.256Z,876.00
2018-05-03T07:26:35.285Z,908.00
2018-05-03T07:27:35.342Z,884.00
2018-05-03T07:28:35.355Z,884.00
2018-05-03T07:29:35.363Z,964.00
2018-05-03T07:30:35.391Z,1032.00
2018-05-03T07:31:35.433Z,1148.00
2018-05-03T07:32:35.445Z,1024.00
2018-05-03T07:33:35.474Z,1120.00
2018-05-03T07:34:35.539Z,1036.00
2018-05-03T07:35:35.528Z,1252.00
2018-05-03T07:36:35.580Z,1064.00
2018-05-03T07:37:35.590Z,1156.00
2018-05-03T07:38:35.612Z,1136.00
2018-05-03T07:39:35.642Z,1124.00
2018-05-03T07:40:35.695Z,1012.00
2018-05-03T07:41:35.695Z,976.00
2018-05-03T07:42:35.724Z,864.00
2018-05-03T07:43:35.750Z,824.00
2018-05-03T07:44:35.777Z,812.00
2018-05-03T07:45:35.804Z,720.00
2018-05-03T07:46:35.834Z,672.00
2018-05-03T07:47:35.862Z,708.00
2018-05-03T07:48:36.590Z,636.00
2018-05-03T07:49:35.918Z,672.00
2018-05-03T07:50:35.949Z,696.00
2018-05-03T07:51:35.978Z,680.00
2018-05-03T07:52:36.024Z,700.00
2018-05-03T07:53:36.029Z,776.00
2018-05-03T07:54:36.055Z,768.00
2018-05-03T07:55:36.085Z,740.00
2018-05-03T07:56:36.187Z,684.00
2018-05-03T07:57:36.137Z,696.00
2018-05-03T07:58:37.099Z,636.00
2018-05-03T07:59:36.224Z,620.00
2018-05-03T08:00:36.225Z,680.00
2018-05-03T08:01:36.247Z,672.00
2018-05-03T08:02:36.347Z,716.00
2018-05-03T08:03:36.306Z,740.00
2018-05-03T08:04:36.330Z,848.00
2018-05-03T08:05:36.358Z,884.00
2018-05-03T08:06:36.387Z,884.00
2018-05-03T08:07:36.414Z,848.00
2018-05-03T08:08:36.472Z,892.00
2018-05-03T08:09:36.470Z,948.00
2018-05-03T08:10:36.495Z,1072.00
2018-05-03T08:11:36.523Z,1420.00
2018-05-03T08:12:36.636Z,1540.00
2018-05-03T08:13:36.578Z,1536.00
2018-05-03T08:14:36.606Z,1508.00
2018-05-03T08:15:36.633Z,1656.00
2018-05-03T08:16:36.660Z,1868.00
2018-05-03T08:17:36.690Z,1636.00
2018-05-03T08:18:36.721Z,1496.00
2018-05-03T08:19:36.745Z,1656.00
2018-05-03T08:20:36.774Z,1680.00
2018-05-03T08:21:36.829Z,1692.00
2018-05-03T08:22:36.828Z,1680.00
2018-05-03T08:23:36.882Z,1408.00
2018-05-03T08:24:36.888Z,1228.00
2018-05-03T08:25:36.910Z,1304.00
2018-05-03T08:26:36.937Z,1380.00
2018-05-03T08:27:36.964Z,1256.00
2018-05-03T08:28:37.090Z,1216.00
2018-05-03T08:29:37.025Z,1056.00
2018-05-03T08:30:37.053Z,1104.00
2018-05-03T08:31:37.149Z,1584.00
2018-05-03T08:32:37.101Z,1568.00
2018-05-03T08:33:37.129Z,1208.00
2018-05-03T08:34:37.158Z,1232.00
2018-05-03T08:35:37.184Z,1288.00
2018-05-03T08:36:37.212Z,1264.00
2018-05-03T08:37:37.245Z,1184.00
2018-05-03T08:38:37.325Z,1184.00
2018-05-03T08:39:37.295Z,1332.00
2018-05-03T08:40:37.323Z,1348.00
2018-05-03T08:41:37.352Z,1384.00
2018-05-03T08:42:37.381Z,1368.00
2018-05-03T08:43:37.405Z,1380.00
2018-05-03T08:44:37.433Z,1288.00
2018-05-03T08:45:37.462Z,1244.00
2018-05-03T08:46:37.490Z,1240.00
2018-05-03T08:47:37.520Z,1156.00
2018-05-03T08:48:37.554Z,1116.00
2018-05-03T08:49:37.589Z,972.00
2018-05-03T08:50:37.600Z,916.00
2018-05-03T08:51:37.627Z,860.00
2018-05-03T08:52:37.655Z,820.00
2018-05-03T08:53:37.684Z,908.00
2018-05-03T08:54:37.710Z,900.00
2018-05-03T08:55:37.792Z,860.00
2018-05-03T08:56:37.767Z,832.00
2018-05-03T08:57:37.795Z,852.00
2018-05-03T08:58:37.822Z,876.00
2018-05-03T08:59:37.853Z,844.00
2018-05-03T09:00:37.879Z,824.00
2018-05-03T09:01:37.917Z,848.00
2018-05-03T09:02:37.953Z,864.00
2018-05-03T09:03:37.960Z,848.00
2018-05-03T09:04:37.991Z,760.00
2018-05-03T09:05:38.023Z,740.00
2018-05-03T09:06:38.046Z,764.00
2018-05-03T09:07:38.697Z,896.00
2018-05-03T09:08:38.103Z,1104.00
2018-05-03T09:09:38.126Z,1208.00
2018-05-03T09:10:38.162Z,1428.00
2018-05-03T09:11:38.183Z,1676.00
2018-05-03T09:12:39.138Z,1388.00
2018-05-03T09:13:38.236Z,1160.00
2018-05-03T09:14:38.264Z,1028.00
2018-05-03T09:15:38.299Z,1068.00
2018-05-03T09:16:38.327Z,1232.00
2018-05-03T09:17:38.385Z,1344.00
2018-05-03T09:18:38.378Z,1380.00
2018-05-03T09:19:38.402Z,1340.00
2018-05-03T09:20:38.433Z,1184.00
2018-05-03T09:21:38.461Z,1108.00
2018-05-03T09:22:38.486Z,1152.00
2018-05-03T09:23:38.523Z,1456.00
2018-05-03T09:24:38.542Z,1544.00
2018-05-03T09:25:38.570Z,1800.00
2018-05-03T09:26:38.602Z,1380.00
2018-05-03T09:27:38.624Z,1204.00
2018-05-03T09:28:38.651Z,1252.00
2018-05-03T09:29:38.690Z,1268.00
2018-05-03T09:30:38.740Z,1324.00
2018-05-03T09:31:38.734Z,1312.00
2018-05-03T09:32:38.762Z,1272.00
2018-05-03T09:33:38.791Z,1228.00
2018-05-03T09:34:38.823Z,1348.00
2018-05-03T09:35:38.844Z,1452.00
2018-05-03T09:36:38.873Z,1312.00
2018-05-03T09:37:38.902Z,1416.00
2018-05-03T09:38:38.929Z,1536.00
2018-05-03T09:39:38.956Z,1356.00
2018-05-03T09:40:38.984Z,1340.00
2018-05-03T09:41:39.013Z,1336.00
2018-05-03T09:42:39.041Z,1276.00
2018-05-03T09:43:39.067Z,1372.00
2018-05-03T09:44:39.096Z,1308.00
2018-05-03T09:45:39.123Z,1380.00
2018-05-03T09:46:39.151Z,1408.00
2018-05-03T09:47:39.179Z,1348.00
2018-05-03T09:48:39.206Z,1296.00
2018-05-03T09:49:39.234Z,1296.00
2018-05-03T09:50:39.266Z,1372.00
2018-05-03T09:51:39.291Z,1364.00
2018-05-03T09:52:39.317Z,1292.00
2018-05-03T09:53:39.347Z,1276.00
2018-05-03T09:54:39.410Z,1228.00
2018-05-03T09:55:39.420Z,1192.00
2018-05-03T09:56:39.431Z,1304.00
2018-05-03T09:57:39.456Z,1424.00
2018-05-03T09:58:39.484Z,1444.00
2018-05-03T09:59:39.511Z,1428.00
2018-05-03T10:00:39.539Z,1376.00
2018-05-03T10:01:39.568Z,1324.00
2018-05-03T10:02:39.595Z,1376.00
2018-05-03T10:03:39.622Z,1500.00
2018-05-03T10:04:39.656Z,1608.00
2018-05-03T10:05:39.679Z,1636.00
2018-05-03T10:06:39.708Z,1632.00
2018-05-03T10:07:39.744Z,1440.00
2018-05-03T10:08:39.762Z,1240.00
2018-05-03T10:09:39.790Z,1212.00
2018-05-03T10:10:39.894Z,1188.00
2018-05-03T10:11:39.845Z,1200.00
2018-05-03T10:12:39.873Z,1228.00
2018-05-03T10:13:39.904Z,1176.00
2018-05-03T10:14:40.025Z,1120.00
2018-05-03T10:15:39.957Z,1096.00
2018-05-03T10:16:39.985Z,1128.00
2018-05-03T10:17:40.019Z,1168.00
2018-05-03T10:18:40.083Z,1164.00
2018-05-03T10:19:40.129Z,1132.00
2018-05-03T10:20:40.126Z,1104.00
2018-05-03T10:21:40.125Z,1060.00
2018-05-03T10:22:40.267Z,1064.00
2018-05-03T10:23:40.206Z,1040.00
2018-05-03T10:24:40.206Z,1000.00
2018-05-03T10:25:40.235Z,980.00
2018-05-03T10:26:40.263Z,1052.00
2018-05-03T10:27:40.327Z,1200.00
2018-05-03T10:28:40.353Z,1388.00
2018-05-03T10:29:40.346Z,1464.00
2018-05-03T10:30:40.376Z,1480.00
2018-05-03T10:31:40.401Z,1488.00
2018-05-03T10:32:40.429Z,1496.00
2018-05-03T10:33:40.473Z,1524.00
2018-05-03T10:34:40.485Z,1468.00
2018-05-03T10:35:40.531Z,1324.00
2018-05-03T10:36:40.556Z,1176.00
2018-05-03T10:37:40.568Z,1156.00
2018-05-03T10:38:40.596Z,1244.00
2018-05-03T10:39:40.623Z,1276.00
2018-05-03T10:40:40.652Z,1084.00
2018-05-03T10:41:40.681Z,1388.00
2018-05-03T10:42:40.708Z,1340.00
2018-05-03T10:43:40.735Z,1328.00
2018-05-03T10:44:40.763Z,1212.00
2018-05-03T10:45:40.798Z,1304.00
2018-05-03T10:46:40.832Z,1340.00
2018-05-03T10:47:40.850Z,1528.00
2018-05-03T10:48:40.949Z,1348.00
2018-05-03T10:49:40.903Z,1248.00
2018-05-03T10:50:40.931Z,1520.00
2018-05-03T10:51:40.991Z,1392.00
2018-05-03T10:52:40.985Z,1376.00
2018-05-03T10:53:41.033Z,1260.00
2018-05-03T10:54:41.041Z,1212.00
2018-05-03T10:55:41.105Z,1264.00
2018-05-03T10:56:41.096Z,1368.00
2018-05-03T10:57:41.150Z,1380.00
2018-05-03T10:58:41.161Z,1364.00
2018-05-03T10:59:41.184Z,1332.00
2018-05-03T11:00:41.207Z,1284.00
2018-05-03T11:01:41.236Z,1352.00
2018-05-03T11:02:41.269Z,1464.00
2018-05-03T11:03:41.328Z,1604.00
2018-05-03T11:04:41.322Z,1600.00
2018-05-03T11:05:41.347Z,1496.00
2018-05-03T11:06:41.378Z,1580.00
2018-05-03T11:07:41.402Z,1560.00
2018-05-03T11:08:41.431Z,1584.00
2018-05-03T11:09:41.458Z,1560.00
2018-05-03T11:10:41.486Z,1676.00
2018-05-03T11:11:41.514Z,1680.00
2018-05-03T11:12:41.541Z,1612.00
2018-05-03T11:13:41.569Z,1616.00
2018-05-03T11:14:41.597Z,1472.00
2018-05-03T11:15:41.625Z,1468.00
2018-05-03T11:16:41.721Z,1428.00
2018-05-03T11:17:41.681Z,1424.00
2018-05-03T11:18:41.724Z,1424.00
2018-05-03T11:19:41.735Z,1220.00
2018-05-03T11:20:41.769Z,1356.00
2018-05-03T11:21:41.792Z,1360.00
2018-05-03T11:22:41.820Z,1444.00
2018-05-03T11:23:41.856Z,1456.00
2018-05-03T11:24:41.875Z,1356.00
2018-05-03T11:25:41.906Z,1088.00
2018-05-03T11:26:41.932Z,1036.00
2018-05-03T11:27:41.959Z,1212.00
2018-05-03T11:28:41.989Z,1304.00
2018-05-03T11:29:42.019Z,1260.00
2018-05-03T11:30:42.045Z,972.00
2018-05-03T11:31:42.072Z,840.00
2018-05-03T11:32:42.098Z,912.00
2018-05-03T11:33:42.126Z,860.00
2018-05-03T11:34:42.155Z,888.00
2018-05-03T11:35:42.185Z,928.00
2018-05-03T11:36:42.289Z,960.00
2018-05-03T11:37:42.238Z,1024.00
2018-05-03T11:38:42.268Z,1012.00
2018-05-03T11:39:42.303Z,1032.00
2018-05-03T11:40:42.349Z,968.00
2018-05-03T11:41:42.349Z,940.00
2018-05-03T11:42:42.427Z,840.00
2018-05-03T11:43:42.405Z,760.00
2018-05-03T11:44:42.466Z,712.00
2018-05-03T11:45:42.466Z,840.00
2018-05-03T11:46:42.488Z,1008.00
2018-05-03T11:47:42.516Z,1100.00
2018-05-03T11:48:42.632Z,1056.00
2018-05-03T11:49:42.595Z,1036.00
2018-05-03T11:50:42.600Z,1140.00
2018-05-03T11:51:42.627Z,1132.00
2018-05-03T11:52:42.654Z,1044.00
2018-05-03T11:53:42.686Z,1072.00
2018-05-03T11:54:42.712Z,1188.00
2018-05-03T11:55:42.741Z,1156.00
2018-05-03T11:56:42.766Z,1080.00
2018-05-03T11:57:42.794Z,1176.00
2018-05-03T11:58:42.822Z,1252.00
2018-05-03T11:59:42.849Z,1180.00
2018-05-03T12:00:42.877Z,1080.00
2018-05-03T12:01:42.906Z,888.00
2018-05-03T12:02:42.945Z,788.00
2018-05-03T12:03:42.962Z,760.00
2018-05-03T12:04:43.015Z,880.00
2018-05-03T12:05:43.017Z,944.00
2018-05-03T12:06:43.045Z,888.00
2018-05-03T12:07:43.072Z,900.00
2018-05-03T12:08:43.108Z,956.00
2018-05-03T12:09:43.130Z,960.00
2018-05-03T12:10:43.157Z,896.00
2018-05-03T12:11:43.200Z,848.00
2018-05-03T12:12:43.215Z,904.00
2018-05-03T12:13:43.240Z,916.00
2018-05-03T12:14:43.268Z,1008.00
2018-05-03T12:15:43.296Z,912.00
2018-05-03T12:16:43.323Z,924.00
2018-05-03T12:17:43.351Z,944.00
2018-05-03T12:18:43.379Z,1084.00
2018-05-03T12:19:43.407Z,1076.00
2018-05-03T12:20:43.434Z,1056.00
2018-05-03T12:21:43.462Z,1044.00
2018-05-03T12:22:43.490Z,988.00
2018-05-03T12:23:43.517Z,1020.00
2018-05-03T12:24:43.545Z,1024.00
2018-05-03T12:25:43.579Z,1012.00
2018-05-03T12:26:43.602Z,1088.00
2018-05-03T12:27:43.638Z,1240.00
2018-05-03T12:28:43.657Z,1340.00
2018-05-03T12:29:43.685Z,1200.00
2018-05-03T12:30:43.713Z,1036.00
2018-05-03T12:31:43.741Z,916.00